Weather observations for the past three days for
Warroad International Memorial Airport
Imperial (Metric)
Date Time (cdt) Wind (mph) Vis. (mi.) Weather Sky Cond. Temperature (ºF) Relative Humidity Wind Chill (°F) Heat Index (°F) Pressure Precipitation (in)
Air Dwpt 6 hour altimeter (in) sea level (mb) 1 hr 3 hr 6 hr
Max. Min.
06 04:15 W 8 10.00 Partly Cloudy SCT049 SCT070 28.4 26.6 93% 21 29.95 0.0
06 03:55 W 6 10.00 Mostly Cloudy SCT029 SCT049 BKN070 30.2 26.6 86% 25 29.95 0.0
06 03:35 W 7 10.00 Light Snow SCT028 BKN043 BKN075 30.2 26.6 86% 24 29.95 0.0
06 03:15 NW 7 7.00 Light Snow SCT026 OVC042 30.2 26.6 86% 24 29.95 0.0
06 02:55 W 7 10.00 Overcast SCT022 BKN041 OVC110 30.2 24.8 80% 24 29.95 0.0
06 02:35 W 6 10.00 Overcast SCT024 BKN044 OVC110 30.2 24.8 80% 25 29.95 0.0
06 02:15 NW 6 10.00 Overcast SCT024 OVC042 30.2 24.8 80% 25 29.95 0.0
06 01:55 NW 7 10.00 Overcast OVC040 30.2 24.8 80% 24 29.95 0.0
06 01:35 NW 7 10.00 Overcast OVC036 30.2 24.8 80% 24 29.95 0.0
06 01:15 NW 8 10.00 Overcast OVC038 30.2 24.8 80% 23 29.95 0.0
06 00:55 NW 7 10.00 Overcast OVC038 30.2 24.8 80% 24 29.95 0.0
06 00:35 NW 5 10.00 Partly Cloudy SCT038 SCT100 28.4 23 80% 24 29.95 0.0
06 00:15 NW 5 10.00 Partly Cloudy SCT100 30.2 23 75% 26 29.95 0.0
05 23:55 NW 9 G 16 10.00 Mostly Cloudy SCT040 BKN100 32 23 69% 25 29.95 0.0
05 23:35 NW 9 G 18 10.00 Overcast BKN036 OVC041 33.8 23 65% 27 29.95 0.0
05 23:15 NW 13 10.00 Overcast OVC034 33.8 24.8 70% 25 29.94 0.0
05 22:55 NW 10 10.00 Overcast BKN038 OVC100 33.8 23 65% 26 29.94 0.0
05 22:35 NW 7 10.00 Overcast BKN040 OVC100 33.8 23 65% 28 29.94 0.0
05 22:15 NW 6 10.00 Overcast BKN042 OVC100 33.8 23 65% 29 29.94 0.0
05 21:55 NW 8 10.00 Overcast OVC042 33.8 23 65% 28 29.94 0.0
05 21:35 NW 10 10.00 Overcast OVC038 33.8 23 65% 26 29.93 0.0
05 21:15 NW 9 10.00 Overcast OVC038 33.8 21.2 60% 27 29.93 0.0
05 20:55 NW 9 10.00 Overcast OVC040 33.8 23 65% 27 29.92 0.0
05 20:35 NW 10 10.00 Overcast BKN040 OVC100 33.8 23 65% 26 29.91 0.0
05 20:15 NW 15 G 18 10.00 Overcast OVC040 33.8 23 65% 25 29.91 0.0
05 19:55 NW 9 G 17 10.00 Overcast OVC040 35.6 23 60% 29 29.91 0.0
05 19:35 NW 13 G 17 10.00 Overcast OVC040 35.6 21.2 56% 28 29.91 0.0
05 19:15 NW 13 G 20 10.00 Overcast OVC040 35.6 23 60% 28 29.9 0.0
05 18:55 NW 14 G 24 10.00 Overcast OVC036 35.6 23 60% 27 29.9 0.0
05 18:35 NW 15 10.00 Overcast OVC036 35.6 23 60% 27 29.89 0.0
05 18:15 NW 12 G 22 10.00 Overcast OVC034 35.6 24.8 65% 28 29.89 0.0
05 17:55 NW 14 G 18 10.00 Overcast OVC036 35.6 24.8 65% 27 29.89 0.0
05 17:35 NW 14 G 21 10.00 Overcast OVC036 35.6 24.8 65% 27 29.89 0.0
05 17:15 NW 14 G 18 10.00 Overcast OVC036 35.6 23 60% 27 29.88 0.0
05 16:55 NW 14 G 20 10.00 Overcast OVC034 35.6 23 60% 27 29.88 0.0
05 16:35 NW 10 G 18 10.00 Overcast OVC034 35.6 24.8 65% 29 29.88 0.0
05 16:15 NW 10 G 18 10.00 Overcast OVC036 35.6 23 60% 29 29.88 0.0
05 15:55 NW 8 10.00 Overcast OVC036 35.6 23 60% 30 29.88 0.0
05 15:35 NW 12 G 20 10.00 Overcast OVC036 35.6 23 60% 28 29.88 0.0
05 15:15 NW 13 G 18 10.00 Overcast OVC036 35.6 23 60% 28 29.88 0.0
05 14:55 NW 10 G 15 10.00 Overcast OVC036 35.6 23 60% 29 29.87 0.0
05 14:35 W 12 G 17 10.00 Overcast OVC034 33.8 23 65% 26 29.87 0.0
05 14:15 W 14 G 22 10.00 Overcast OVC034 33.8 21.2 60% 25 29.87 0.0
05 13:55 W 15 G 18 10.00 Overcast BKN032 OVC040 33.8 21.2 60% 25 29.86 0.0
05 13:35 NW 12 10.00 Overcast OVC032 33.8 23 65% 26 29.86 0.0
05 13:15 NW 15 G 18 10.00 Overcast OVC034 33.8 21.2 60% 25 29.86 0.0
05 12:55 NW 15 G 20 10.00 Overcast OVC032 33.8 21.2 60% 25 29.85 0.0
05 12:35 NW 14 10.00 Overcast OVC030 32 21.2 64% 23 29.85 0.0
05 12:15 NW 13 10.00 Overcast OVC030 32 21.2 64% 23 29.85 0.0
05 11:55 NW 13 G 18 10.00 Overcast OVC028 30.2 21.2 69% 21 29.85 0.0
05 11:35 NW 12 G 23 10.00 Overcast OVC028 30.2 21.2 69% 21 29.84 0.0
05 11:15 NW 15 G 23 10.00 Overcast OVC028 30.2 21.2 69% 20 29.84 0.0
05 10:55 NW 13 G 21 10.00 Overcast OVC028 30.2 21.2 69% 21 29.83 0.0
05 10:35 NW 15 G 20 10.00 Overcast OVC024 30.2 21.2 69% 20 29.83 0.0
05 10:15 NW 12 G 16 10.00 Overcast OVC024 28.4 21.2 74% 19 29.83 0.0
05 09:55 NW 13 G 18 10.00 Overcast OVC024 28.4 21.2 74% 19 29.82 0.0
05 09:35 NW 12 10.00 Overcast OVC024 28.4 21.2 74% 19 29.82 0.0
05 09:15 W 12 G 17 10.00 Overcast OVC024 28.4 21.2 74% 19 29.81 0.0
05 08:55 NW 12 G 17 10.00 Overcast OVC026 28.4 21.2 74% 19 29.81 0.0
05 08:35 NW 13 G 20 10.00 Overcast BKN026 OVC031 28.4 19.4 69% 19 29.81 0.0
05 08:15 NW 15 G 21 10.00 Overcast OVC028 28.4 21.2 74% 18 29.8 0.0
05 07:55 NW 12 G 17 10.00 Overcast BKN023 BKN030 OVC095 28.4 21.2 74% 19 29.8 0.0
05 07:35 NW 13 G 20 10.00 Overcast SCT025 BKN030 OVC095 26.6 19.4 74% 16 29.79 0.0
05 07:15 NW 13 G 18 10.00 Overcast OVC023 26.6 21.2 80% 16 29.78 0.0
05 06:55 NW 12 G 16 10.00 Overcast BKN021 OVC031 28.4 21.2 74% 19 29.77 0.0
05 06:35 NW 7 10.00 Overcast OVC019 26.6 21.2 80% 20 29.76 0.0
05 06:15 NW 8 10.00 Overcast OVC019 26.6 23 86% 19 29.76 0.0
05 05:55 W 7 10.00 Overcast BKN021 BKN026 OVC032 26.6 23 86% 20 29.76 0.0
05 05:35 W 7 10.00 Mostly Cloudy BKN034 BKN060 26.6 23 86% 20 29.75 0.0
05 05:15 W 10 10.00 Overcast SCT028 BKN035 OVC060 28.4 23 80% 20 29.75 0.0
05 04:55 W 9 10.00 Overcast BKN028 OVC035 28.4 23 80% 20 29.75 0.0
05 04:35 W 9 10.00 Overcast BKN028 OVC050 28.4 23 80% 20 29.74 0.0
05 04:15 W 10 10.00 Overcast OVC050 28.4 23 80% 20 29.74 0.0
05 03:55 W 10 10.00 Overcast OVC050 28.4 23 80% 20 29.74 0.0
05 03:35 W 10 10.00 Overcast SCT028 SCT045 OVC050 28.4 23 80% 20 29.74 0.0
05 03:15 W 10 10.00 Light Snow SCT031 SCT038 OVC047 28.4 21.2 74% 20 29.74 0.0
05 02:55 W 7 10.00 Overcast OVC036 28.4 21.2 74% 22 29.73 0.0
05 02:35 NW 10 10.00 Overcast OVC038 28.4 21.2 74% 20 29.73 0.0
05 02:15 W 6 10.00 Overcast BKN042 OVC070 28.4 21.2 74% 23 29.73 0.0
05 01:55 NW 10 10.00 Overcast SCT044 OVC080 28.4 21.2 74% 20 29.73 0.0
05 01:35 NW 8 10.00 Overcast OVC080 28.4 21.2 74% 21 29.73 0.0
05 01:15 NW 7 10.00 Overcast OVC080 28.4 21.2 74% 22 29.73 0.0
05 00:55 NW 13 G 16 10.00 Partly Cloudy SCT080 28.4 21.2 74% 19 29.73 0.0
05 00:35 NW 12 G 21 10.00 Partly Cloudy SCT031 28.4 21.2 74% 19 29.73 0.0
05 00:15 NW 10 G 21 10.00 Mostly Cloudy BKN031 28.4 21.2 74% 20 29.73 0.0
04 23:55 W 10 10.00 Partly Cloudy SCT034 28.4 23 80% 20 29.72 0.0
04 23:35 NW 10 10.00 Partly Cloudy SCT027 28.4 23 80% 20 29.72 0.0
04 23:15 NW 16 G 23 10.00 Overcast BKN029 OVC037 30.2 23 75% 20 29.72 0.0
04 22:55 NW 14 G 20 10.00 Overcast OVC037 30.2 23 75% 21 29.72 0.0
04 22:35 NW 13 G 21 10.00 Overcast BKN031 OVC039 32 23 69% 23 29.72 0.0
04 22:15 NW 10 G 20 10.00 Overcast OVC029 32 23 69% 24 29.71 0.0
04 21:35 NW 10 G 20 10.00 Overcast OVC031 32 23 69% 24 29.71 0.0
04 21:15 NW 16 G 20 10.00 Overcast OVC031 32 24.8 75% 22 29.7 0.0
04 20:55 NW 13 10.00 Overcast OVC031 33.8 24.8 70% 25 29.69 0.0
04 20:35 NW 16 G 23 10.00 Overcast OVC031 33.8 24.8 70% 24 29.69 0.0
04 20:15 W 16 G 23 10.00 Overcast OVC027 33.8 26.6 75% 24 29.68 0.0
04 19:55 NW 14 G 23 10.00 Overcast OVC027 33.8 26.6 75% 25 29.67 0.0
04 19:35 NW 15 G 22 10.00 Overcast OVC025 33.8 26.6 75% 25 29.67 0.0
04 19:15 NW 15 G 25 10.00 Overcast OVC027 35.6 26.6 70% 27 29.66 0.0
04 18:55 NW 14 10.00 Overcast OVC031 35.6 28.4 75% 27 29.65 0.0
04 18:35 NW 17 G 22 10.00 Overcast OVC031 37.4 28.4 70% 29 29.64 0.0
04 18:15 W 15 G 20 10.00 Mostly Cloudy BKN031 37.4 28.4 70% 29 29.63 0.0
04 17:55 W 18 G 28 10.00 Partly Cloudy SCT029 SCT035 37.4 28.4 70% 28 29.62 0.0
04 17:35 NW 16 G 25 10.00 Partly Cloudy SCT030 SCT060 37.4 28.4 70% 29 29.61 0.0
04 17:15 NW 15 G 29 10.00 Mostly Cloudy BKN030 BKN037 BKN100 39.2 30.2 70% 31 29.61 0.0
04 16:55 NW 20 G 25 10.00 Mostly Cloudy SCT032 BKN037 BKN047 39.2 30.2 70% 30 29.59 0.0
04 16:35 W 16 G 24 10.00 Mostly Cloudy SCT034 BKN045 BKN060 39.2 30.2 70% 31 29.58 0.0
04 16:15 NW 14 G 31 10.00 Mostly Cloudy SCT031 SCT043 BKN060 39.2 32 75% 32 29.58 0.0
04 15:55 NW 18 G 33 7.00 Mostly Cloudy SCT032 SCT040 BKN050 37.4 33.8 87% 28 29.57 0.0
04 15:35 NW 23 G 29 10.00 Partly Cloudy and Breezy SCT024 SCT032 39.2 33.8 81% 29 29.56 0.0
04 15:15 NW 21 G 28 7.00 Mostly Cloudy and Breezy SCT028 SCT037 BKN075 39.2 33.8 81% 30 29.56 0.0
04 14:55 W 14 G 26 10.00 Mostly Cloudy SCT022 SCT029 BKN075 35.6 33.8 93% 27 29.56 0.0
04 14:35 NW 22 G 28 7.00 Mostly Cloudy and Breezy SCT010 SCT023 BKN030 39.2 35.6 87% 30 29.55 0.0
04 14:15 NW 18 G 30 5.00 Rain SCT006 BKN029 OVC070 37.4 33.8 87% 28 29.55 0.0
04 13:55 W 16 G 28 10.00 Mostly Cloudy SCT030 BKN038 BKN070 41 30.2 66% 33 29.53 0.0
04 13:35 NW 22 G 29 10.00 Overcast and Breezy BKN032 BKN046 OVC070 39.2 30.2 70% 30 29.52 0.0
04 13:15 W 20 G 30 10.00 Overcast BKN030 OVC038 39.2 30.2 70% 30 29.51 0.0
04 12:55 NW 17 G 26 10.00 Overcast BKN030 OVC037 39.2 30.2 70% 31 29.51 0.0
04 12:35 W 17 G 30 10.00 Overcast BKN030 OVC065 39.2 32 75% 31 29.5 0.0
04 12:15 W 16 G 36 10.00 Overcast BKN026 BKN032 OVC060 39.2 32 75% 31 29.49 0.0
04 11:55 W 14 G 29 10.00 Mostly Cloudy SCT022 BKN031 BKN060 37.4 33.8 87% 30 29.49 0.0
04 11:35 NW 22 G 29 10.00 Mostly Cloudy and Breezy SCT022 BKN029 BKN039 37.4 33.8 87% 27 29.48 0.0
04 11:15 W 16 G 25 10.00 Overcast BKN022 OVC031 37.4 33.8 87% 29 29.48 0.0
04 10:55 NW 16 G 29 10.00 Light Drizzle SCT022 BKN027 OVC050 37.4 33.8 87% 29 29.47 0.0
04 10:35 NW 20 G 31 7.00 Light Rain SCT021 BKN027 OVC050 37.4 33.8 87% 28 29.46 0.0
04 10:15 W 14 G 25 7.00 Light Drizzle BKN019 OVC025 35.6 33.8 93% 27 29.46 0.0
04 09:55 W 18 G 31 10.00 Overcast BKN018 BKN025 OVC030 35.6 33.8 93% 26 29.45 0.0
04 09:35 W 20 G 23 7.00 Light Rain OVC017 35.6 33.8 93% 26 29.44 0.0
04 09:15 W 15 G 24 7.00 Light Rain BKN016 OVC024 35.6 33.8 93% 27 29.43 0.0
04 08:55 W 14 G 22 7.00 Light Drizzle BKN016 OVC022 35.6 33.8 93% 27 29.42 0.0
04 08:35 W 15 G 26 7.00 Light Rain SCT014 OVC022 35.6 33.8 93% 27 29.42 0.0
04 08:15 W 15 G 24 7.00 Rain SCT012 BKN017 OVC033 35.6 33.8 93% 27 29.41 0.0
04 07:55 NW 18 G 28 10.00 Overcast BKN020 BKN025 OVC033 37.4 33.8 87% 28 29.4 0.0
04 07:35 W 18 G 26 10.00 Overcast BKN023 OVC030 37.4 33.8 87% 28 29.39 0.0
04 07:15 W 24 G 32 10.00 Overcast and Breezy SCT014 BKN023 OVC029 37.4 33.8 87% 27 29.37 0.0
04 06:55 NW 15 G 31 10.00 Overcast SCT018 BKN024 OVC034 37.4 33.8 87% 29 29.36 0.0
04 06:35 NW 13 G 25 10.00 Overcast BKN015 OVC026 37.4 35.6 93% 30 29.35 0.0
04 06:15 NW 17 G 30 10.00 Overcast OVC013 37.4 35.6 93% 29 29.33 0.0
04 05:55 W 18 G 26 10.00 Overcast OVC015 39.2 35.6 87% 31 29.32 0.0
04 05:35 W 16 G 29 10.00 Overcast OVC015 39.2 35.6 87% 31 29.31 0.0
04 05:15 W 15 G 25 10.00 Overcast OVC017 39.2 35.6 87% 31 29.31 0.0
04 04:55 W 18 G 26 10.00 Overcast SCT017 OVC060 39.2 37.4 93% 31 29.29 0.0
04 04:35 W 21 G 26 10.00 Overcast and Breezy SCT060 OVC080 41 39.2 93% 32 29.27 0.0
04 04:15 W 17 G 21 10.00 Overcast OVC070 42.8 41 93% 35 29.26 0.0
04 03:55 W 15 10.00 Mostly Cloudy BKN070 42.8 41 93% 36 29.27 0.0
04 03:35 W 13 10.00 Partly Cloudy SCT070 42.8 41 93% 37 29.25 0.0
04 03:15 W 10 10.00 Fair CLR 42.8 41 93% 38 29.26 0.0
04 02:55 SW 9 10.00 Fair CLR 42.8 41 93% 38 29.26 0.0
04 02:35 SW 10 10.00 Fair CLR 42.8 41 93% 38 29.28 0.0
04 02:15 SW 8 10.00 Fair CLR 42.8 41 93% 39 29.27 0.0
04 01:55 SW 3 10.00 Light Rain SCT025 SCT031 BKN043 42.8 41 93% 29.27 0.0
04 01:35 W 10 10.00 Rain SCT033 OVC043 44.6 42.8 93% 40 29.31 0.0
04 01:15 W 13 G 21 10.00 Light Rain SCT033 OVC045 44.6 42.8 93% 39 29.33 0.0
04 00:55 W 15 G 26 10.00 Drizzle SCT042 SCT048 OVC060 46.4 44.6 93% 41 29.32 0.0
04 00:35 W 21 G 26 10.00 Rain and Breezy OVC060 51.8 46.4 82% 29.3 0.0
04 00:15 W 8 10.00 Light Rain OVC060 51.8 48.2 88% 29.29 0.0
03 23:55 SW 6 10.00 Rain BKN060 OVC070 51.8 48.2 88% 29.29 0.0
03 23:35 SW 7 10.00 Overcast SCT047 OVC060 51.8 48.2 88% 29.3 0.0
03 23:15 W 7 10.00 Light Rain SCT038 BKN048 OVC070 51.8 48.2 88% 29.31 0.0
03 22:55 W 8 10.00 Light Rain SCT033 BKN048 OVC065 51.8 48.2 88% 29.33 0.0
03 22:35 W 10 10.00 Rain SCT035 OVC065 53.6 48.2 82% 29.33 0.0
03 22:15 W 8 G 17 10.00 Light Rain SCT039 OVC065 53.6 48.2 82% 29.33 0.0
03 21:55 W 15 G 28 10.00 Light Rain SCT050 OVC065 55.4 48.2 77% 29.35 0.0
03 21:35 W 13 G 21 10.00 Light Rain OVC065 59 44.6 59% 29.34 0.0
03 21:15 W 21 G 35 10.00 Drizzle and Breezy SCT050 BKN065 OVC080 59 44.6 59% 29.35 0.0
03 20:55 W 16 G 23 10.00 Light Rain SCT060 BKN090 OVC110 62.6 37.4 39% 29.35 0.0
03 20:35 SW 15 G 24 10.00 Overcast OVC110 62.6 35.6 37% 29.35 0.0
03 20:15 W 17 G 28 10.00 Partly Cloudy SCT110 64.4 32 30% 29.35 0.0
03 19:55 SW 15 G 28 10.00 Fair CLR 64.4 30.2 28% 29.36 0.0
03 19:35 SW 13 G 24 10.00 Fair CLR 66.2 26.6 22% 29.38 0.0
03 19:15 W 28 G 33 10.00 Partly Cloudy and Windy SCT090 66.2 28.4 24% 29.4 0.0
03 18:55 W 16 G 26 10.00 Partly Cloudy SCT090 66.2 28.4 24% 29.41 0.0
03 18:35 W 12 G 18 10.00 Partly Cloudy SCT090 66.2 33.8 30% 29.42 0.0
03 18:15 SW 14 G 23 10.00 Partly Cloudy SCT090 66.2 30.2 26% 29.42 0.0
03 17:55 SW 14 G 25 10.00 Partly Cloudy SCT090 66.2 30.2 26% 29.44 0.0
03 17:35 SW 16 G 28 10.00 Fair CLR 66.2 30.2 26% 29.43 0.0
03 17:15 SW 20 G 28 10.00 Fair CLR 66.2 28.4 24% 29.44 0.0
03 16:55 SW 15 G 28 10.00 Partly Cloudy SCT090 68 28.4 23% 29.46 0.0
03 16:35 SW 13 G 26 10.00 Partly Cloudy SCT090 66.2 32 28% 29.49 0.0
03 16:15 SW 15 G 28 10.00 Partly Cloudy SCT090 66.2 30.2 26% 29.51 0.0
03 15:55 SW 13 G 24 10.00 Partly Cloudy SCT090 66.2 28.4 24% 29.52 0.0
03 15:35 SW 15 G 23 10.00 Partly Cloudy SCT090 64.4 28.4 26% 29.54 0.0
03 15:15 SW 15 G 21 10.00 Partly Cloudy SCT110 64.4 28.4 26% 29.56 0.0
03 14:55 W 12 G 22 10.00 Fair CLR 64.4 28.4 26% 29.59 0.0
03 14:35 W 16 G 25 10.00 Fair CLR 64.4 28.4 26% 29.6 0.0
03 14:15 SW 12 G 23 10.00 Fair CLR 62.6 26.6 25% 29.61 0.0
03 13:55 W 16 G 21 10.00 Fair CLR 60.8 26.6 27% 29.63 0.0
03 13:35 W 12 G 22 10.00 Fair CLR 60.8 28.4 29% 29.64 0.0
03 13:15 W 14 G 22 10.00 Fair CLR 60.8 28.4 29% 29.66 0.0
03 12:55 W 16 G 25 10.00 Fair CLR 59 28.4 31% 29.67 0.0
03 12:35 SW 10 G 20 10.00 Fair CLR 57.2 28.4 33% 29.69 0.0
03 12:15 W 12 G 18 10.00 Fair CLR 57.2 26.6 31% 29.7 0.0
03 11:55 W 14 G 22 10.00 Partly Cloudy SCT110 55.4 26.6 33% 29.72 0.0
03 11:35 W 14 G 21 10.00 Partly Cloudy SCT110 55.4 26.6 33% 29.73 0.0
03 11:15 SW 10 G 16 10.00 Fair CLR 53.6 26.6 35% 29.73 0.0
03 10:55 W 10 10.00 Fair CLR 53.6 26.6 35% 29.73 0.0
03 10:35 SW 9 G 16 10.00 Fair CLR 53.6 30.2 41% 29.75 0.0
03 10:15 W 8 10.00 Fair CLR 51.8 26.6 38% 29.75 0.0
03 09:55 W 10 10.00 Fair CLR 50 28.4 43% 46 29.76 0.0
03 09:35 SW 7 10.00 Fair CLR 48.2 30.2 50% 46 29.77 0.0
03 09:15 W 10 10.00 Fair CLR 46.4 30.2 53% 42 29.77 0.0
03 08:55 W 9 10.00 Fair CLR 44.6 30.2 57% 40 29.78 0.0
03 08:35 W 6 10.00 Fair CLR 42.8 30.2 61% 40 29.78 0.0
03 08:15 W 6 10.00 Fair CLR 42.8 28.4 57% 40 29.78 0.0
03 07:55 W 7 10.00 Fair CLR 41 28.4 61% 37 29.78 0.0
03 07:35 W 3 10.00 Fair CLR 39.2 28.4 65% 29.78 0.0
03 07:15 W 5 10.00 Fair CLR 37.4 28.4 70% 34 29.78 0.0
03 06:55 W 6 10.00 Fair CLR 37.4 26.6 65% 33 29.77 0.0
03 06:35 W 6 10.00 Fair CLR 37.4 26.6 65% 33 29.77 0.0
03 06:15 W 5 10.00 Fair CLR 37.4 26.6 65% 34 29.77 0.0
03 05:55 W 5 10.00 Fair CLR 37.4 26.6 65% 34 29.77 0.0
03 05:35 W 7 10.00 Fair CLR 37.4 26.6 65% 33 29.77 0.0
03 05:15 W 5 10.00 Fair CLR 37.4 28.4 70% 34 29.76 0.0
03 04:55 W 6 10.00 Fair CLR 37.4 28.4 70% 33 29.76 0.0
03 04:35 NW 6 10.00 Fair CLR 39.2 28.4 65% 36 29.76 0.0
Date Time (cdt) Wind (mph) Vis. (mi.) Weather Sky Cond. Air Dwpt Max. Min. Relative Humidity Wind Chill (°F) Heat Index (°F) altimeter (in) sea level (mb) 1 hr 3 hr 6 hr
6 hour
Temperature (ºF) Pressure Precipitation (in)